Time,TemperatureF,DewpointF,PressureIn,WindDirection,WindDirectionDegrees,WindSpeedMPH,WindSpeedGustMPH,Humidity,HourlyPrecipIn,Conditions,Clouds,dailyrainin,SoftwareType,DateUTC
2013-02-20 00:00:00,30.0,13.2,29.94,North,360,0.0,2.0,49,0.00,,---,0.00,VWS V14.00,2013-02-20 07:00:00,
2013-02-20 00:06:00,29.5,12.7,29.91,North,5,0.0,1.0,49,0.00,,---,0.00,VWS V14.00,2013-02-20 07:06:00,
2013-02-20 00:12:00,29.2,12.9,29.91,North,0,2.0,3.0,50,0.00,,---,0.00,VWS V14.00,2013-02-20 07:12:00,
2013-02-20 00:17:00,28.9,13.1,29.91,North,360,0.0,1.0,51,0.00,,---,0.00,VWS V14.00,2013-02-20 07:17:00,
2013-02-20 00:22:00,28.7,13.3,29.92,North,360,0.0,1.0,52,0.00,,---,0.00,VWS V14.00,2013-02-20 07:22:00,
2013-02-20 00:27:00,28.5,13.6,29.91,North,360,2.0,2.0,53,0.00,,---,0.00,VWS V14.00,2013-02-20 07:27:00,
2013-02-20 00:32:00,28.3,13.8,29.93,NNW,347,5.0,5.0,54,0.00,,---,0.00,VWS V14.00,2013-02-20 07:32:00,
2013-02-20 00:37:00,28.1,14.0,29.93,NNE,13,0.0,0.0,55,0.00,,---,0.00,VWS V14.00,2013-02-20 07:37:00,
2013-02-20 00:42:00,27.9,14.2,29.93,North,5,0.0,4.0,56,0.00,,---,0.00,VWS V14.00,2013-02-20 07:42:00,
2013-02-20 00:47:00,27.7,14.1,29.93,North,5,0.0,1.0,56,0.00,,---,0.00,VWS V14.00,2013-02-20 07:47:00,
2013-02-20 00:52:00,27.5,15.8,29.93,North,360,0.0,0.0,61,0.00,,---,0.00,VWS V14.00,2013-02-20 07:52:00,
2013-02-20 00:57:00,27.3,14.1,29.93,North,360,0.0,1.0,57,0.00,,---,0.00,VWS V14.00,2013-02-20 07:57:00,
2013-02-20 01:05:00,27.0,13.8,29.91,North,360,0.0,0.0,57,0.00,,---,0.00,VWS V14.00,2013-02-20 08:05:00,
2013-02-20 01:10:00,26.8,14.0,29.92,North,5,1.0,2.0,58,0.00,,---,0.00,VWS V14.00,2013-02-20 08:10:00,
2013-02-20 01:15:00,26.6,13.8,29.91,North,5,1.0,2.0,58,0.00,,---,0.00,VWS V14.00,2013-02-20 08:15:00,
2013-02-20 01:20:00,26.4,14.0,29.93,North,5,0.0,2.0,59,0.00,,---,0.00,VWS V14.00,2013-02-20 08:20:00,
2013-02-20 01:25:00,26.2,13.8,29.93,NE,36,0.0,2.0,59,0.00,,---,0.00,VWS V14.00,2013-02-20 08:25:00,
2013-02-20 01:30:00,26.2,14.2,29.93,NE,36,0.0,1.0,60,0.00,,---,0.00,VWS V14.00,2013-02-20 08:30:00,
2013-02-20 01:35:00,26.0,14.0,29.93,NNE,33,2.0,2.0,60,0.00,,---,0.00,VWS V14.00,2013-02-20 08:35:00,
2013-02-20 01:40:00,25.9,13.9,29.92,WNW,299,0.0,1.0,60,0.00,,---,0.00,VWS V14.00,2013-02-20 08:40:00,
2013-02-20 01:45:00,25.8,14.2,29.92,North,355,0.0,2.0,61,0.00,,---,0.00,VWS V14.00,2013-02-20 08:45:00,
2013-02-20 01:50:00,25.6,14.0,29.92,NE,36,1.0,2.0,61,0.00,,---,0.00,VWS V14.00,2013-02-20 08:50:00,
2013-02-20 01:55:00,25.5,13.9,29.92,NNE,25,0.0,3.0,61,0.00,,---,0.00,VWS V14.00,2013-02-20 08:55:00,
2013-02-20 02:00:00,25.4,13.8,29.92,NNE,25,0.0,0.0,61,0.00,,---,0.00,VWS V14.00,2013-02-20 09:00:00,
2013-02-20 02:05:00,25.3,14.1,29.91,NNE,24,3.0,3.0,62,0.00,,---,0.00,VWS V14.00,2013-02-20 09:05:00,
2013-02-20 02:10:00,25.2,14.0,29.91,NNW,344,2.0,3.0,62,0.00,,---,0.00,VWS V14.00,2013-02-20 09:10:00,
2013-02-20 02:15:00,25.1,13.9,29.92,North,355,2.0,2.0,62,0.00,,---,0.00,VWS V14.00,2013-02-20 09:15:00,
2013-02-20 02:20:00,25.0,13.8,29.91,North,355,1.0,3.0,62,0.00,,---,0.00,VWS V14.00,2013-02-20 09:20:00,
2013-02-20 02:25:00,24.9,14.1,29.91,NNW,343,0.0,1.0,63,0.00,,---,0.00,VWS V14.00,2013-02-20 09:25:00,
2013-02-20 02:30:00,24.8,14.0,29.91,North,5,1.0,5.0,63,0.00,,---,0.00,VWS V14.00,2013-02-20 09:30:00,
2013-02-20 02:35:00,24.7,13.9,29.91,North,360,0.0,4.0,63,0.00,,---,0.00,VWS V14.00,2013-02-20 09:35:00,
2013-02-20 02:40:00,24.6,13.8,29.91,North,360,1.0,2.0,63,0.00,,---,0.00,VWS V14.00,2013-02-20 09:40:00,
2013-02-20 02:45:00,24.5,13.7,29.91,North,9,0.0,2.0,63,0.00,,---,0.00,VWS V14.00,2013-02-20 09:45:00,
2013-02-20 02:50:00,24.4,13.6,29.91,North,9,0.0,0.0,63,0.00,,---,0.00,VWS V14.00,2013-02-20 09:50:00,
2013-02-20 02:55:00,24.3,13.9,29.91,North,9,0.0,0.0,64,0.00,,---,0.00,VWS V14.00,2013-02-20 09:55:00,
2013-02-20 03:00:00,24.2,13.8,29.91,North,9,0.0,1.0,64,0.00,,---,0.00,VWS V14.00,2013-02-20 10:00:00,
2013-02-20 03:05:00,24.1,13.7,29.92,North,9,0.0,0.0,64,0.00,,---,0.00,VWS V14.00,2013-02-20 10:05:00,
2013-02-20 03:10:00,24.0,13.6,29.92,North,9,1.0,1.0,64,0.00,,---,0.00,VWS V14.00,2013-02-20 10:10:00,
2013-02-20 03:15:00,23.9,13.5,29.92,North,9,1.0,1.0,64,0.00,,---,0.00,VWS V14.00,2013-02-20 10:15:00,
2013-02-20 03:20:00,23.8,13.8,29.92,North,5,1.0,3.0,65,0.00,,---,0.00,VWS V14.00,2013-02-20 10:20:00,
2013-02-20 03:25:00,23.7,13.7,29.92,NNE,23,0.0,1.0,65,0.00,,---,0.00,VWS V14.00,2013-02-20 10:25:00,
2013-02-20 03:30:00,23.6,13.6,29.92,NNE,22,0.0,0.0,65,0.00,,---,0.00,VWS V14.00,2013-02-20 10:30:00,
2013-02-20 03:35:00,23.6,13.6,29.92,NNE,22,0.0,0.0,65,0.00,,---,0.00,VWS V14.00,2013-02-20 10:35:00,
2013-02-20 03:40:00,23.4,13.4,29.92,NNE,23,0.0,2.0,65,0.00,,---,0.00,VWS V14.00,2013-02-20 10:40:00,
2013-02-20 03:45:00,23.4,13.7,29.93,NNE,23,0.0,0.0,66,0.00,,---,0.00,VWS V14.00,2013-02-20 10:45:00,
2013-02-20 03:50:00,23.3,13.6,29.93,NNE,23,0.0,0.0,66,0.00,,---,0.00,VWS V14.00,2013-02-20 10:50:00,
2013-02-20 03:55:00,23.2,13.5,29.93,NNE,22,0.0,0.0,66,0.00,,---,0.00,VWS V14.00,2013-02-20 10:55:00,
2013-02-20 04:00:00,23.1,13.4,29.93,NNE,23,0.0,1.0,66,0.00,,---,0.00,VWS V14.00,2013-02-20 11:00:00,
2013-02-20 04:05:00,23.0,13.4,29.93,NNE,23,1.0,1.0,66,0.00,,---,0.00,VWS V14.00,2013-02-20 11:05:00,
2013-02-20 04:10:00,22.9,13.3,29.93,NNE,23,0.0,0.0,66,0.00,,---,0.00,VWS V14.00,2013-02-20 11:10:00,
2013-02-20 04:15:00,22.8,13.2,29.93,NNE,22,0.0,0.0,66,0.00,,---,0.00,VWS V14.00,2013-02-20 11:15:00,
2013-02-20 04:20:00,22.8,13.2,29.93,NNE,23,0.0,1.0,66,0.00,,---,0.00,VWS V14.00,2013-02-20 11:20:00,
2013-02-20 04:25:00,22.7,13.4,29.93,NNE,23,0.0,0.0,67,0.00,,---,0.00,VWS V14.00,2013-02-20 11:25:00,
2013-02-20 04:30:00,22.6,13.3,29.93,NNE,22,0.0,2.0,67,0.00,,---,0.00,VWS V14.00,2013-02-20 11:30:00,
2013-02-20 04:35:00,22.5,13.2,29.93,NNE,23,0.0,0.0,67,0.00,,---,0.00,VWS V14.00,2013-02-20 11:35:00,
2013-02-20 04:40:00,22.5,13.2,29.93,NNE,23,0.0,0.0,67,0.00,,---,0.00,VWS V14.00,2013-02-20 11:40:00,
2013-02-20 04:45:00,22.4,13.4,29.92,NNE,23,0.0,0.0,68,0.00,,---,0.00,VWS V14.00,2013-02-20 11:45:00,
2013-02-20 04:50:00,22.4,13.1,29.93,NNE,22,0.0,1.0,67,0.00,,---,0.00,VWS V14.00,2013-02-20 11:50:00,
2013-02-20 04:55:00,22.3,13.4,29.93,NNE,23,0.0,0.0,68,0.00,,---,0.00,VWS V14.00,2013-02-20 11:55:00,
2013-02-20 05:00:00,22.3,13.4,29.93,NNE,23,0.0,0.0,68,0.00,,---,0.00,VWS V14.00,2013-02-20 12:00:00,
2013-02-20 05:05:00,22.2,13.3,29.95,NNE,22,0.0,0.0,68,0.00,,---,0.00,VWS V14.00,2013-02-20 12:05:00,
2013-02-20 05:10:00,22.2,13.3,29.95,NNE,22,0.0,0.0,68,0.00,,---,0.00,VWS V14.00,2013-02-20 12:10:00,
2013-02-20 05:15:00,22.2,13.3,29.95,NNE,23,0.0,0.0,68,0.00,,---,0.00,VWS V14.00,2013-02-20 12:15:00,
2013-02-20 05:20:00,22.2,13.3,29.95,NNE,23,0.0,0.0,68,0.00,,---,0.00,VWS V14.00,2013-02-20 12:20:00,
2013-02-20 05:25:00,22.2,13.3,29.95,NNE,23,0.0,0.0,68,0.00,,---,0.00,VWS V14.00,2013-02-20 12:25:00,
2013-02-20 05:30:00,22.1,13.2,29.95,NNE,23,0.0,0.0,68,0.00,,---,0.00,VWS V14.00,2013-02-20 12:30:00,
2013-02-20 05:35:00,22.1,13.2,29.95,NNE,23,0.0,0.0,68,0.00,,---,0.00,VWS V14.00,2013-02-20 12:35:00,
2013-02-20 05:40:00,22.1,13.2,29.94,NNE,22,0.0,0.0,68,0.00,,---,0.00,VWS V14.00,2013-02-20 12:40:00,
2013-02-20 05:45:00,22.1,13.5,29.95,NNE,22,0.0,0.0,69,0.00,,---,0.00,VWS V14.00,2013-02-20 12:45:00,
2013-02-20 05:50:00,22.1,13.5,29.94,NNE,23,0.0,0.0,69,0.00,,---,0.00,VWS V14.00,2013-02-20 12:50:00,
2013-02-20 05:55:00,22.2,13.6,29.94,NNE,23,0.0,0.0,69,0.00,,---,0.00,VWS V14.00,2013-02-20 12:55:00,
2013-02-20 06:00:00,22.1,13.5,29.94,NNE,23,0.0,0.0,69,0.00,,---,0.00,VWS V14.00,2013-02-20 13:00:00,
2013-02-20 06:05:00,22.1,13.5,29.94,NNE,22,0.0,0.0,69,0.00,,---,0.00,VWS V14.00,2013-02-20 13:05:00,
2013-02-20 06:10:00,22.1,13.5,29.93,NNE,23,0.0,0.0,69,0.00,,---,0.00,VWS V14.00,2013-02-20 13:10:00,
2013-02-20 06:15:00,22.1,13.5,29.93,NNE,22,0.0,0.0,69,0.00,,---,0.00,VWS V14.00,2013-02-20 13:15:00,
2013-02-20 06:20:00,22.1,13.5,29.93,NNE,22,0.0,0.0,69,0.00,,---,0.00,VWS V14.00,2013-02-20 13:20:00,
2013-02-20 06:25:00,22.1,13.5,29.94,NNE,23,0.0,0.0,69,0.00,,---,0.00,VWS V14.00,2013-02-20 13:25:00,
2013-02-20 06:30:00,22.0,13.4,29.94,NNE,23,0.0,0.0,69,0.00,,---,0.00,VWS V14.00,2013-02-20 13:30:00,
2013-02-20 06:35:00,22.0,13.4,29.93,NNE,23,0.0,0.0,69,0.00,,---,0.00,VWS V14.00,2013-02-20 13:35:00,
2013-02-20 06:40:00,22.0,13.7,29.93,NNE,22,0.0,0.0,70,0.00,,---,0.00,VWS V14.00,2013-02-20 13:40:00,
2013-02-20 06:45:00,22.0,13.7,29.93,NNE,23,0.0,0.0,70,0.00,,---,0.00,VWS V14.00,2013-02-20 13:45:00,
2013-02-20 06:50:00,21.9,13.6,29.94,NNE,23,0.0,0.0,70,0.00,,---,0.00,VWS V14.00,2013-02-20 13:50:00,
2013-02-20 06:55:00,21.9,13.6,29.94,NNE,22,0.0,0.0,70,0.00,,---,0.00,VWS V14.00,2013-02-20 13:55:00,
2013-02-20 07:01:00,21.8,13.5,29.93,NNE,22,0.0,0.0,70,0.00,,---,0.00,VWS V14.00,2013-02-20 14:01:00,
2013-02-20 07:06:00,21.8,13.5,29.94,NNE,23,0.0,0.0,70,0.00,,---,0.00,VWS V14.00,2013-02-20 14:06:00,
2013-02-20 07:11:00,21.8,13.5,29.95,NNE,23,0.0,0.0,70,0.00,,---,0.00,VWS V14.00,2013-02-20 14:11:00,
2013-02-20 07:16:00,21.9,13.6,29.95,NNE,23,0.0,0.0,70,0.00,,---,0.00,VWS V14.00,2013-02-20 14:16:00,
2013-02-20 07:22:00,22.1,16.0,29.95,NNE,23,0.0,0.0,77,0.00,,---,0.00,VWS V14.00,2013-02-20 14:22:00,
2013-02-20 07:27:00,22.2,14.2,29.95,NNE,23,0.0,0.0,71,0.00,,---,0.00,VWS V14.00,2013-02-20 14:27:00,
2013-02-20 07:32:00,22.4,14.4,29.95,NNE,23,0.0,0.0,71,0.00,,---,0.00,VWS V14.00,2013-02-20 14:32:00,
2013-02-20 07:38:00,22.5,14.5,29.95,NNE,23,0.0,0.0,71,0.00,,---,0.00,VWS V14.00,2013-02-20 14:38:00,
2013-02-20 07:43:00,22.7,14.7,29.95,NNE,22,0.0,0.0,71,0.00,,---,0.00,VWS V14.00,2013-02-20 14:43:00,
2013-02-20 07:49:00,22.8,14.8,29.95,NNE,22,0.0,0.0,71,0.00,,---,0.00,VWS V14.00,2013-02-20 14:49:00,
2013-02-20 07:54:00,22.9,14.9,29.95,NNE,22,0.0,0.0,71,0.00,,---,0.00,VWS V14.00,2013-02-20 14:54:00,
2013-02-20 07:59:00,23.1,15.1,29.95,NNE,23,0.0,1.0,71,0.00,,---,0.00,VWS V14.00,2013-02-20 14:59:00,
2013-02-20 08:04:00,23.3,15.3,29.96,NNE,23,0.0,0.0,71,0.00,,---,0.00,VWS V14.00,2013-02-20 15:04:00,
2013-02-20 08:10:00,23.4,15.1,29.96,NNE,23,0.0,1.0,70,0.00,,---,0.00,VWS V14.00,2013-02-20 15:10:00,
2013-02-20 08:15:00,23.5,15.2,29.96,NNE,23,0.0,0.0,70,0.00,,---,0.00,VWS V14.00,2013-02-20 15:15:00,
2013-02-20 08:21:00,23.7,15.4,29.95,NNE,22,0.0,0.0,70,0.00,,---,0.00,VWS V14.00,2013-02-20 15:21:00,
2013-02-20 08:26:00,23.9,15.6,29.96,NNE,23,0.0,0.0,70,0.00,,---,0.00,VWS V14.00,2013-02-20 15:26:00,
2013-02-20 08:32:00,24.2,15.8,29.95,NNE,23,0.0,0.0,70,0.00,,---,0.00,VWS V14.00,2013-02-20 15:32:00,
2013-02-20 08:37:00,24.5,16.1,29.94,NNE,23,0.0,0.0,70,0.00,,---,0.00,VWS V14.00,2013-02-20 15:37:00,
2013-02-20 08:42:00,24.8,16.1,29.94,NNE,25,0.0,0.0,69,0.00,,---,0.00,VWS V14.00,2013-02-20 15:42:00,
2013-02-20 08:47:00,25.1,16.4,29.94,NNE,25,0.0,0.0,69,0.00,,---,0.00,VWS V14.00,2013-02-20 15:47:00,
2013-02-20 08:52:00,25.3,16.6,29.94,NNE,25,0.0,1.0,69,0.00,,---,0.00,VWS V14.00,2013-02-20 15:52:00,
2013-02-20 08:57:00,25.5,16.4,29.94,NNE,25,0.0,0.0,68,0.00,,---,0.00,VWS V14.00,2013-02-20 15:57:00,
2013-02-20 09:02:00,25.8,16.4,29.94,NNE,25,0.0,1.0,67,0.00,,---,0.00,VWS V14.00,2013-02-20 16:02:00,
2013-02-20 09:07:00,26.0,16.2,29.94,NNE,25,0.0,1.0,66,0.00,,---,0.00,VWS V14.00,2013-02-20 16:07:00,
2013-02-20 09:12:00,26.3,16.5,29.93,NNE,25,0.0,0.0,66,0.00,,---,0.00,VWS V14.00,2013-02-20 16:12:00,
2013-02-20 09:17:00,26.2,16.1,29.93,NE,37,0.0,0.0,65,0.00,,---,0.00,VWS V14.00,2013-02-20 16:17:00,
2013-02-20 09:22:00,26.6,16.4,29.93,NE,37,0.0,1.0,65,0.00,,---,0.00,VWS V14.00,2013-02-20 16:22:00,
2013-02-20 09:27:00,27.0,16.5,29.94,NE,37,0.0,0.0,64,0.00,,---,0.00,VWS V14.00,2013-02-20 16:27:00,
2013-02-20 09:32:00,27.0,16.1,29.93,NE,37,0.0,0.0,63,0.00,,---,0.00,VWS V14.00,2013-02-20 16:32:00,
2013-02-20 09:37:00,27.1,16.2,29.93,NE,37,0.0,0.0,63,0.00,,---,0.00,VWS V14.00,2013-02-20 16:37:00,
2013-02-20 09:42:00,27.0,15.7,29.93,NE,36,3.0,4.0,62,0.00,,---,0.00,VWS V14.00,2013-02-20 16:42:00,
2013-02-20 09:47:00,27.0,16.1,29.93,NNE,33,0.0,0.0,63,0.00,,---,0.00,VWS V14.00,2013-02-20 16:47:00,
2013-02-20 09:52:00,27.5,16.2,29.92,NNE,33,1.0,2.0,62,0.00,,---,0.00,VWS V14.00,2013-02-20 16:52:00,
2013-02-20 09:57:00,27.5,16.6,29.93,NNE,33,0.0,1.0,63,0.00,,---,0.00,VWS V14.00,2013-02-20 16:57:00,
2013-02-20 10:02:00,27.9,17.0,29.91,NNE,33,0.0,0.0,63,0.00,,---,0.00,VWS V14.00,2013-02-20 17:02:00,
2013-02-20 10:07:00,28.7,17.0,29.91,NNE,32,0.0,0.0,61,0.00,,---,0.00,VWS V14.00,2013-02-20 17:07:00,
2013-02-20 10:12:00,29.0,16.9,29.90,NNE,32,0.0,0.0,60,0.00,,---,0.00,VWS V14.00,2013-02-20 17:12:00,
2013-02-20 10:17:00,29.8,16.8,29.89,NNE,32,0.0,0.0,58,0.00,,---,0.00,VWS V14.00,2013-02-20 17:17:00,
2013-02-20 10:22:00,29.7,16.8,29.89,NNW,331,3.0,4.0,58,0.00,,---,0.00,VWS V14.00,2013-02-20 17:22:00,
2013-02-20 10:27:00,29.2,16.3,29.90,NNW,334,0.0,1.0,58,0.00,,---,0.00,VWS V14.00,2013-02-20 17:27:00,
2013-02-20 10:32:00,29.4,16.9,29.90,NNW,334,0.0,0.0,59,0.00,,---,0.00,VWS V14.00,2013-02-20 17:32:00,
2013-02-20 10:37:00,29.7,16.8,29.89,NNW,338,0.0,0.0,58,0.00,,---,0.00,VWS V14.00,2013-02-20 17:37:00,
2013-02-20 10:42:00,29.7,16.4,29.89,North,10,0.0,3.0,57,0.00,,---,0.00,VWS V14.00,2013-02-20 17:42:00,
2013-02-20 10:47:00,29.8,16.4,29.89,North,9,0.0,0.0,57,0.00,,---,0.00,VWS V14.00,2013-02-20 17:47:00,
2013-02-20 10:52:00,30.0,16.6,29.89,North,9,1.0,1.0,57,0.00,,---,0.00,VWS V14.00,2013-02-20 17:52:00,
2013-02-20 10:57:00,30.3,16.5,29.89,NNE,13,3.0,4.0,56,0.00,,---,0.00,VWS V14.00,2013-02-20 17:57:00,
2013-02-20 11:02:00,30.7,17.3,29.88,ENE,59,0.0,2.0,57,0.00,,---,0.00,VWS V14.00,2013-02-20 18:02:00,
2013-02-20 11:07:00,31.2,16.5,29.89,North,360,0.0,5.0,54,0.00,,---,0.00,VWS V14.00,2013-02-20 18:07:00,
2013-02-20 11:12:00,31.4,17.1,29.89,North,5,0.0,3.0,55,0.00,,---,0.00,VWS V14.00,2013-02-20 18:12:00,
2013-02-20 11:17:00,31.7,16.5,29.87,NNE,17,0.0,3.0,53,0.00,,---,0.00,VWS V14.00,2013-02-20 18:17:00,
2013-02-20 11:22:00,31.8,17.1,29.87,NE,34,2.0,5.0,54,0.00,,---,0.00,VWS V14.00,2013-02-20 18:22:00,
2013-02-20 11:27:00,31.6,17.3,29.87,NE,41,0.0,1.0,55,0.00,,---,0.00,VWS V14.00,2013-02-20 18:27:00,
2013-02-20 11:32:00,31.9,17.2,29.87,NE,37,1.0,1.0,54,0.00,,---,0.00,VWS V14.00,2013-02-20 18:32:00,
2013-02-20 11:37:00,32.3,17.5,29.86,East,88,2.0,2.0,54,0.00,,---,0.00,VWS V14.00,2013-02-20 18:37:00,
2013-02-20 11:42:00,32.8,17.1,29.86,East,87,0.0,2.0,52,0.00,,---,0.00,VWS V14.00,2013-02-20 18:42:00,
2013-02-20 11:47:00,33.0,17.8,29.86,NNE,19,1.0,5.0,53,0.00,,---,0.00,VWS V14.00,2013-02-20 18:47:00,
2013-02-20 11:52:00,32.6,16.9,29.85,NNE,19,0.0,0.0,52,0.00,,---,0.00,VWS V14.00,2013-02-20 18:52:00,
2013-02-20 11:57:00,32.6,17.4,29.84,NNE,19,1.0,3.0,53,0.00,,---,0.00,VWS V14.00,2013-02-20 18:57:00,
2013-02-20 12:02:00,32.8,17.1,29.84,North,10,2.0,3.0,52,0.00,,---,0.00,VWS V14.00,2013-02-20 19:02:00,
2013-02-20 12:07:00,32.4,17.6,29.86,NE,38,2.0,4.0,54,0.00,,---,0.00,VWS V14.00,2013-02-20 19:07:00,
2013-02-20 12:12:00,32.8,17.6,29.85,NNE,33,0.0,4.0,53,0.00,,---,0.00,VWS V14.00,2013-02-20 19:12:00,
2013-02-20 12:17:00,33.0,17.3,29.84,NNE,24,1.0,5.0,52,0.00,,---,0.00,VWS V14.00,2013-02-20 19:17:00,
2013-02-20 12:22:00,33.8,18.0,29.84,NNE,26,3.0,4.0,52,0.00,,---,0.00,VWS V14.00,2013-02-20 19:22:00,
2013-02-20 12:27:00,33.8,18.0,29.83,NNE,14,4.0,4.0,52,0.00,,---,0.00,VWS V14.00,2013-02-20 19:27:00,
2013-02-20 12:32:00,33.9,17.7,29.83,NNE,19,0.0,3.0,51,0.00,,---,0.00,VWS V14.00,2013-02-20 19:32:00,
2013-02-20 12:37:00,35.3,19.0,29.82,NNW,347,1.0,1.0,51,0.00,,---,0.00,VWS V14.00,2013-02-20 19:37:00,
2013-02-20 12:42:00,35.6,17.9,29.81,NNE,25,1.0,4.0,48,0.00,,---,0.00,VWS V14.00,2013-02-20 19:42:00,
2013-02-20 12:47:00,35.6,18.3,29.81,NNE,33,0.0,4.0,49,0.00,,---,0.00,VWS V14.00,2013-02-20 19:47:00,
2013-02-20 12:52:00,35.6,18.3,29.81,NNE,19,0.0,3.0,49,0.00,,---,0.00,VWS V14.00,2013-02-20 19:52:00,
2013-02-20 12:57:00,36.1,18.8,29.80,North,5,2.0,2.0,49,0.00,,---,0.00,VWS V14.00,2013-02-20 19:57:00,
2013-02-20 13:02:00,35.6,17.9,29.80,NE,48,0.0,4.0,48,0.00,,---,0.00,VWS V14.00,2013-02-20 20:02:00,
2013-02-20 13:07:00,35.8,18.5,29.81,North,360,4.0,4.0,49,0.00,,---,0.00,VWS V14.00,2013-02-20 20:07:00,
2013-02-20 13:12:00,35.2,18.4,29.80,NNE,25,1.0,1.0,50,0.00,,---,0.00,VWS V14.00,2013-02-20 20:12:00,
2013-02-20 13:17:00,35.8,18.5,29.80,NE,52,2.0,5.0,49,0.00,,---,0.00,VWS V14.00,2013-02-20 20:17:00,
2013-02-20 13:22:00,35.7,18.4,29.80,NE,44,0.0,1.0,49,0.00,,---,0.00,VWS V14.00,2013-02-20 20:22:00,
2013-02-20 13:27:00,36.0,18.7,29.80,NNE,28,3.0,6.0,49,0.00,,---,0.00,VWS V14.00,2013-02-20 20:27:00,
2013-02-20 13:32:00,36.2,18.9,29.79,NNE,28,2.0,5.0,49,0.00,,---,0.00,VWS V14.00,2013-02-20 20:32:00,
2013-02-20 13:37:00,36.2,18.9,29.79,NE,40,1.0,6.0,49,0.00,,---,0.00,VWS V14.00,2013-02-20 20:37:00,
2013-02-20 13:42:00,36.1,19.3,29.79,NNE,19,0.0,4.0,50,0.00,,---,0.00,VWS V14.00,2013-02-20 20:42:00,
2013-02-20 13:47:00,35.8,19.0,29.79,NNE,18,2.0,4.0,50,0.00,,---,0.00,VWS V14.00,2013-02-20 20:47:00,
2013-02-20 13:52:00,35.9,19.1,29.79,NNW,334,4.0,8.0,50,0.00,,---,0.00,VWS V14.00,2013-02-20 20:52:00,
2013-02-20 13:57:00,35.6,19.3,29.78,North,355,0.0,7.0,51,0.00,,---,0.00,VWS V14.00,2013-02-20 20:57:00,
2013-02-20 14:02:00,35.8,19.5,29.78,NNW,344,8.0,11.0,51,0.00,,---,0.00,VWS V14.00,2013-02-20 21:02:00,
2013-02-20 14:07:00,35.5,19.2,29.78,NNE,26,0.0,5.0,51,0.00,,---,0.00,VWS V14.00,2013-02-20 21:07:00,
2013-02-20 14:12:00,35.3,19.5,29.80,NNE,25,2.0,4.0,52,0.00,,---,0.00,VWS V14.00,2013-02-20 21:12:00,
2013-02-20 14:17:00,35.4,20.0,29.79,NNE,28,0.0,4.0,53,0.00,,---,0.00,VWS V14.00,2013-02-20 21:17:00,
2013-02-20 14:22:00,35.7,20.7,29.78,NE,34,2.0,5.0,54,0.00,,---,0.00,VWS V14.00,2013-02-20 21:22:00,
2013-02-20 14:27:00,35.5,21.0,29.78,North,355,2.0,5.0,55,0.00,,---,0.00,VWS V14.00,2013-02-20 21:27:00,
2013-02-20 14:32:00,35.3,21.2,29.79,NNE,24,3.0,3.0,56,0.00,,---,0.00,VWS V14.00,2013-02-20 21:32:00,
2013-02-20 14:37:00,34.8,21.5,29.79,NE,37,2.0,6.0,58,0.00,,---,0.00,VWS V14.00,2013-02-20 21:37:00,
2013-02-20 14:42:00,34.4,22.4,29.79,NE,53,3.0,8.0,61,0.00,,---,0.00,VWS V14.00,2013-02-20 21:42:00,
2013-02-20 14:47:00,33.9,23.0,29.79,NE,50,4.0,7.0,64,0.00,,---,0.00,VWS V14.00,2013-02-20 21:47:00,
2013-02-20 14:52:00,33.6,23.5,29.79,NNE,29,1.0,4.0,66,0.00,,---,0.00,VWS V14.00,2013-02-20 21:52:00,
2013-02-20 14:57:00,33.3,24.2,29.80,North,355,4.0,4.0,69,0.00,,---,0.00,VWS V14.00,2013-02-20 21:57:00,
2013-02-20 15:02:00,33.0,25.3,29.80,North,5,2.0,4.0,73,0.00,,---,0.00,VWS V14.00,2013-02-20 22:02:00,
2013-02-20 15:07:00,32.8,26.1,29.80,North,9,1.0,3.0,76,0.00,,---,0.00,VWS V14.00,2013-02-20 22:07:00,
2013-02-20 15:12:00,32.8,26.4,29.80,NNE,24,0.0,0.0,77,0.00,,---,0.00,VWS V14.00,2013-02-20 22:12:00,
2013-02-20 15:17:00,32.8,26.7,29.80,NNE,24,0.0,0.0,78,0.00,,---,0.00,VWS V14.00,2013-02-20 22:17:00,
2013-02-20 15:22:00,32.8,27.0,29.80,NNE,24,0.0,0.0,79,0.00,,---,0.00,VWS V14.00,2013-02-20 22:22:00,
2013-02-20 15:27:00,32.8,27.3,29.80,East,90,3.0,3.0,80,0.00,,---,0.00,VWS V14.00,2013-02-20 22:27:00,
2013-02-20 15:32:00,32.6,27.4,29.80,ESE,113,0.0,2.0,81,0.00,,---,0.00,VWS V14.00,2013-02-20 22:32:00,
2013-02-20 15:37:00,32.5,27.3,29.80,ESE,113,0.0,0.0,81,0.00,,---,0.00,VWS V14.00,2013-02-20 22:37:00,
2013-02-20 15:43:00,32.3,27.1,29.82,North,9,5.0,5.0,81,0.00,,---,0.00,VWS V14.00,2013-02-20 22:43:00,
2013-02-20 15:49:00,31.7,26.5,29.82,NNE,28,10.0,10.0,81,0.00,,---,0.00,VWS V14.00,2013-02-20 22:49:00,
2013-02-20 15:54:00,31.0,26.2,29.82,NNE,17,2.0,5.0,82,0.00,,---,0.00,VWS V14.00,2013-02-20 22:54:00,
2013-02-20 16:00:00,30.5,25.7,29.82,North,5,0.0,2.0,82,0.00,,---,0.00,VWS V14.00,2013-02-20 23:00:00,
2013-02-20 16:05:00,30.3,25.8,29.83,North,11,2.0,5.0,83,0.00,,---,0.00,VWS V14.00,2013-02-20 23:05:00,
2013-02-20 16:10:00,30.1,25.6,29.83,ENE,59,3.0,3.0,83,0.00,,---,0.00,VWS V14.00,2013-02-20 23:10:00,
2013-02-20 16:15:00,29.9,25.7,29.83,NNE,26,3.0,4.0,84,0.00,,---,0.00,VWS V14.00,2013-02-20 23:15:00,
2013-02-20 16:20:00,29.8,25.6,29.83,North,9,3.0,5.0,84,0.00,,---,0.00,VWS V14.00,2013-02-20 23:20:00,
2013-02-20 16:25:00,29.7,25.5,29.83,NNE,20,1.0,3.0,84,0.00,,---,0.00,VWS V14.00,2013-02-20 23:25:00,
2013-02-20 16:30:00,29.7,25.8,29.83,NNE,18,2.0,3.0,85,0.00,,---,0.00,VWS V14.00,2013-02-20 23:30:00,
2013-02-20 16:35:00,29.6,25.6,29.83,NNE,19,3.0,3.0,85,0.00,,---,0.00,VWS V14.00,2013-02-20 23:35:00,
2013-02-20 16:41:00,29.6,25.6,29.84,NNE,30,1.0,5.0,85,0.00,,---,0.00,VWS V14.00,2013-02-20 23:41:00,
2013-02-20 16:46:00,29.6,25.6,29.83,NNE,17,2.0,4.0,85,0.00,,---,0.00,VWS V14.00,2013-02-20 23:46:00,
2013-02-20 16:51:00,29.6,25.9,29.84,NNE,23,3.0,4.0,86,0.00,,---,0.00,VWS V14.00,2013-02-20 23:51:00,
2013-02-20 16:56:00,29.7,26.0,29.84,NNE,22,1.0,1.0,86,0.00,,---,0.00,VWS V14.00,2013-02-20 23:56:00,
2013-02-20 17:01:00,29.8,26.1,29.84,SE,129,0.0,2.0,86,0.00,,---,0.00,VWS V14.00,2013-02-21 00:01:00,
2013-02-20 17:06:00,29.8,26.1,29.84,NNE,22,0.0,1.0,86,0.00,,---,0.00,VWS V14.00,2013-02-21 00:06:00,
2013-02-20 17:11:00,29.8,26.1,29.84,NNE,21,0.0,0.0,86,0.00,,---,0.00,VWS V14.00,2013-02-21 00:11:00,
2013-02-20 17:16:00,29.8,26.1,29.84,North,355,1.0,1.0,86,0.00,,---,0.00,VWS V14.00,2013-02-21 00:16:00,
2013-02-20 17:22:00,29.8,26.1,29.84,NNE,21,3.0,3.0,86,0.00,,---,0.00,VWS V14.00,2013-02-21 00:22:00,
2013-02-20 17:27:00,29.7,26.0,29.84,NNE,24,1.0,2.0,86,0.00,,---,0.00,VWS V14.00,2013-02-21 00:27:00,
2013-02-20 17:32:00,29.6,26.2,29.84,NNE,28,0.0,4.0,87,0.00,,---,0.00,VWS V14.00,2013-02-21 00:32:00,
2013-02-20 17:38:00,29.5,26.1,29.84,NNE,29,0.0,3.0,87,0.00,,---,0.00,VWS V14.00,2013-02-21 00:38:00,
2013-02-20 17:44:00,29.5,26.1,29.85,NNE,29,1.0,1.0,87,0.00,,---,0.00,VWS V14.00,2013-02-21 00:44:00,
2013-02-20 17:49:00,29.4,26.0,29.86,NNE,29,0.0,0.0,87,0.00,,---,0.00,VWS V14.00,2013-02-21 00:49:00,
2013-02-20 17:54:00,29.3,25.9,29.86,North,360,0.0,0.0,87,0.00,,---,0.00,VWS V14.00,2013-02-21 00:54:00,
2013-02-20 18:00:00,29.3,25.9,29.86,North,5,2.0,4.0,87,0.00,,---,0.00,VWS V14.00,2013-02-21 01:00:00,
2013-02-20 18:05:00,29.2,25.8,29.87,NNE,32,0.0,2.0,87,0.00,,---,0.00,VWS V14.00,2013-02-21 01:05:00,
2013-02-20 18:11:00,29.1,25.7,29.87,NNE,26,0.0,3.0,87,0.00,,---,0.00,VWS V14.00,2013-02-21 01:11:00,
2013-02-20 18:16:00,29.0,25.6,29.87,ENE,62,0.0,3.0,87,0.00,,---,0.00,VWS V14.00,2013-02-21 01:16:00,
2013-02-20 18:21:00,28.9,25.5,29.87,NE,55,0.0,0.0,87,0.00,,---,0.00,VWS V14.00,2013-02-21 01:21:00,
2013-02-20 18:26:00,28.8,25.4,29.87,NNE,25,0.0,0.0,87,0.00,,---,0.00,VWS V14.00,2013-02-21 01:26:00,
2013-02-20 18:32:00,28.5,25.1,29.88,North,360,0.0,2.0,87,0.00,,---,0.00,VWS V14.00,2013-02-21 01:32:00,
2013-02-20 18:37:00,28.2,24.8,29.88,ENE,74,0.0,0.0,87,0.00,,---,0.00,VWS V14.00,2013-02-21 01:37:00,
2013-02-20 18:42:00,28.0,24.6,29.88,ENE,74,0.0,0.0,87,0.00,,---,0.00,VWS V14.00,2013-02-21 01:42:00,
2013-02-20 18:47:00,27.8,24.4,29.89,ENE,72,0.0,2.0,87,0.00,,---,0.00,VWS V14.00,2013-02-21 01:47:00,
2013-02-20 18:53:00,27.5,24.1,29.89,ENE,65,2.0,2.0,87,0.00,,---,0.00,VWS V14.00,2013-02-21 01:53:00,
2013-02-20 18:58:00,27.2,23.9,29.90,East,94,0.0,2.0,87,0.00,,---,0.00,VWS V14.00,2013-02-21 01:58:00,
2013-02-20 19:03:00,26.8,23.5,29.89,ESE,116,0.0,2.0,87,0.00,,---,0.00,VWS V14.00,2013-02-21 02:03:00,
2013-02-20 19:08:00,26.5,23.2,29.89,East,87,0.0,3.0,87,0.00,,---,0.00,VWS V14.00,2013-02-21 02:08:00,
2013-02-20 19:13:00,26.2,22.9,29.90,East,87,0.0,0.0,87,0.00,,---,0.00,VWS V14.00,2013-02-21 02:13:00,
2013-02-20 19:18:00,26.2,22.9,29.91,East,88,0.0,0.0,87,0.00,,---,0.00,VWS V14.00,2013-02-21 02:18:00,
2013-02-20 19:23:00,26.1,22.8,29.91,East,88,1.0,1.0,87,0.00,,---,0.00,VWS V14.00,2013-02-21 02:23:00,
2013-02-20 19:28:00,26.0,22.7,29.91,East,88,0.0,0.0,87,0.00,,---,0.00,VWS V14.00,2013-02-21 02:28:00,
2013-02-20 19:33:00,25.8,22.5,29.91,East,88,0.0,1.0,87,0.00,,---,0.00,VWS V14.00,2013-02-21 02:33:00,
2013-02-20 19:38:00,25.7,22.4,29.91,East,83,0.0,3.0,87,0.00,,---,0.00,VWS V14.00,2013-02-21 02:38:00,
2013-02-20 19:43:00,25.6,22.3,29.91,ENE,68,0.0,0.0,87,0.00,,---,0.00,VWS V14.00,2013-02-21 02:43:00,
2013-02-20 19:48:00,25.4,22.1,29.91,ENE,67,1.0,3.0,87,0.00,,---,0.00,VWS V14.00,2013-02-21 02:48:00,
2013-02-20 19:53:00,25.2,21.9,29.90,ENE,67,0.0,0.0,87,0.00,,---,0.00,VWS V14.00,2013-02-21 02:53:00,
2013-02-20 19:58:00,25.0,21.7,29.91,ENE,67,0.0,2.0,87,0.00,,---,0.00,VWS V14.00,2013-02-21 02:58:00,
2013-02-20 20:03:00,24.8,21.5,29.90,ENE,63,0.0,0.0,87,0.00,,---,0.00,VWS V14.00,2013-02-21 03:03:00,
2013-02-20 20:08:00,24.7,21.4,29.90,ENE,63,0.0,0.0,87,0.00,,---,0.00,VWS V14.00,2013-02-21 03:08:00,
2013-02-20 20:13:00,24.6,21.3,29.90,ENE,63,0.0,0.0,87,0.00,,---,0.00,VWS V14.00,2013-02-21 03:13:00,
2013-02-20 20:18:00,24.5,21.2,29.90,ENE,63,0.0,0.0,87,0.00,,---,0.00,VWS V14.00,2013-02-21 03:18:00,
2013-02-20 20:23:00,24.4,21.1,29.90,ENE,63,2.0,2.0,87,0.00,,---,0.00,VWS V14.00,2013-02-21 03:23:00,
2013-02-20 20:28:00,24.3,21.0,29.90,ENE,63,2.0,3.0,87,0.00,,---,0.00,VWS V14.00,2013-02-21 03:28:00,
2013-02-20 20:33:00,24.1,20.5,29.91,North,355,0.0,2.0,86,0.00,,---,0.00,VWS V14.00,2013-02-21 03:33:00,
2013-02-20 20:38:00,24.0,20.4,29.91,North,5,0.0,4.0,86,0.00,,---,0.00,VWS V14.00,2013-02-21 03:38:00,
2013-02-20 20:43:00,23.8,20.2,29.91,North,11,0.0,2.0,86,0.00,,---,0.00,VWS V14.00,2013-02-21 03:43:00,
2013-02-20 20:48:00,23.6,20.0,29.91,NNE,25,0.0,2.0,86,0.00,,---,0.00,VWS V14.00,2013-02-21 03:48:00,
2013-02-20 20:53:00,23.5,19.9,29.91,North,360,1.0,1.0,86,0.00,,---,0.00,VWS V14.00,2013-02-21 03:53:00,
2013-02-20 20:58:00,23.4,19.8,29.93,NE,34,3.0,3.0,86,0.00,,---,0.00,VWS V14.00,2013-02-21 03:58:00,
2013-02-20 21:03:00,23.3,19.7,29.92,NNE,33,1.0,4.0,86,0.00,,---,0.00,VWS V14.00,2013-02-21 04:03:00,
2013-02-20 21:08:00,23.1,19.5,29.92,NNE,26,2.0,5.0,86,0.00,,---,0.00,VWS V14.00,2013-02-21 04:08:00,
2013-02-20 21:13:00,22.8,19.2,29.92,NE,46,0.0,4.0,86,0.00,,---,0.00,VWS V14.00,2013-02-21 04:13:00,
2013-02-20 21:18:00,22.7,19.1,29.92,ENE,59,3.0,3.0,86,0.00,,---,0.00,VWS V14.00,2013-02-21 04:18:00,
2013-02-20 21:23:00,22.5,19.0,29.92,NNE,33,1.0,2.0,86,0.00,,---,0.00,VWS V14.00,2013-02-21 04:23:00,
2013-02-20 21:28:00,22.5,19.0,29.92,NNE,33,2.0,4.0,86,0.00,,---,0.00,VWS V14.00,2013-02-21 04:28:00,
2013-02-20 21:33:00,22.4,18.9,29.92,ENE,65,0.0,1.0,86,0.00,,---,0.00,VWS V14.00,2013-02-21 04:33:00,
2013-02-20 21:38:00,22.4,18.9,29.92,ENE,63,0.0,2.0,86,0.00,,---,0.00,VWS V14.00,2013-02-21 04:38:00,
2013-02-20 21:43:00,22.3,18.8,29.93,NNE,21,3.0,4.0,86,0.00,,---,0.00,VWS V14.00,2013-02-21 04:43:00,
2013-02-20 21:48:00,22.2,18.7,29.93,NNE,27,0.0,0.0,86,0.00,,---,0.00,VWS V14.00,2013-02-21 04:48:00,
2013-02-20 21:53:00,22.1,18.6,29.93,NNE,27,0.0,0.0,86,0.00,,---,0.00,VWS V14.00,2013-02-21 04:53:00,
2013-02-20 21:58:00,22.0,18.5,29.93,NE,44,4.0,4.0,86,0.00,,---,0.00,VWS V14.00,2013-02-21 04:58:00,
2013-02-20 22:00:00,22.0,18.5,29.93,East,84,0.0,1.0,86,0.00,,---,0.00,VWS V14.00,2013-02-21 05:00:00,
2013-02-20 22:02:00,22.0,18.5,29.93,NE,48,0.0,0.0,86,0.00,,---,0.00,VWS V14.00,2013-02-21 05:02:00,
2013-02-20 22:03:00,21.9,18.4,29.92,East,95,0.0,3.0,86,0.00,,---,0.00,VWS V14.00,2013-02-21 05:03:00,
2013-02-20 22:08:00,21.8,18.3,29.92,NNE,28,1.0,1.0,86,0.00,,---,0.00,VWS V14.00,2013-02-21 05:08:00,
2013-02-20 22:13:00,21.7,18.2,29.92,NNE,28,0.0,1.0,86,0.00,,---,0.00,VWS V14.00,2013-02-21 05:13:00,
2013-02-20 22:18:00,21.6,18.1,29.92,NE,44,1.0,1.0,86,0.00,,---,0.00,VWS V14.00,2013-02-21 05:18:00,
2013-02-20 22:23:00,21.5,18.0,29.92,ENE,57,3.0,4.0,86,0.00,,---,0.00,VWS V14.00,2013-02-21 05:23:00,
2013-02-20 22:28:00,21.4,17.9,29.92,North,5,0.0,3.0,86,0.00,,---,0.00,VWS V14.00,2013-02-21 05:28:00,
2013-02-20 22:33:00,21.3,17.8,29.92,North,11,3.0,4.0,86,0.00,,---,0.00,VWS V14.00,2013-02-21 05:33:00,
2013-02-20 22:38:00,21.2,17.7,29.92,North,10,1.0,2.0,86,0.00,,---,0.00,VWS V14.00,2013-02-21 05:38:00,
2013-02-20 22:43:00,21.1,17.6,29.92,NNE,33,0.0,2.0,86,0.00,,---,0.00,VWS V14.00,2013-02-21 05:43:00,
2013-02-20 22:48:00,21.1,17.6,29.92,NNE,33,0.0,1.0,86,0.00,,---,0.00,VWS V14.00,2013-02-21 05:48:00,
2013-02-20 22:53:00,21.0,17.5,29.92,NNE,33,1.0,2.0,86,0.00,,---,0.00,VWS V14.00,2013-02-21 05:53:00,
2013-02-20 22:59:00,20.9,17.4,29.92,NNE,24,0.0,2.0,86,0.00,,---,0.00,VWS V14.00,2013-02-21 05:59:00,
2013-02-20 23:05:00,20.8,17.3,29.91,NNE,18,4.0,4.0,86,0.00,,---,0.00,VWS V14.00,2013-02-21 06:05:00,
2013-02-20 23:11:00,20.7,17.2,29.92,NE,41,0.0,1.0,86,0.00,,---,0.00,VWS V14.00,2013-02-21 06:11:00,
2013-02-20 23:16:00,20.7,17.2,29.92,NE,42,0.0,2.0,86,0.00,,---,0.00,VWS V14.00,2013-02-21 06:16:00,
2013-02-20 23:21:00,20.6,17.1,29.91,NE,42,0.0,3.0,86,0.00,,---,0.00,VWS V14.00,2013-02-21 06:21:00,
2013-02-20 23:26:00,20.6,17.1,29.92,NE,40,1.0,2.0,86,0.00,,---,0.00,VWS V14.00,2013-02-21 06:26:00,
2013-02-20 23:31:00,20.5,17.0,29.91,NNW,348,2.0,2.0,86,0.00,,---,0.00,VWS V14.00,2013-02-21 06:31:00,
2013-02-20 23:36:00,20.4,16.9,29.93,NNE,22,2.0,3.0,86,0.00,,---,0.00,VWS V14.00,2013-02-21 06:36:00,
2013-02-20 23:41:00,20.3,16.8,29.93,NNE,26,0.0,1.0,86,0.00,,---,0.00,VWS V14.00,2013-02-21 06:41:00,
2013-02-20 23:46:00,20.2,16.7,29.93,North,360,2.0,2.0,86,0.00,,---,0.00,VWS V14.00,2013-02-21 06:46:00,
2013-02-20 23:51:00,20.1,16.6,29.93,NNE,27,3.0,5.0,86,0.00,,---,0.00,VWS V14.00,2013-02-21 06:51:00,
2013-02-20 23:56:00,20.0,16.5,29.93,NNE,23,1.0,3.0,86,0.00,,---,0.00,VWS V14.00,2013-02-21 06:56:00,